createdAt,value
2016-06-29T00:00:57.085Z,0
2016-06-29T00:01:56.969Z,0
2016-06-29T00:02:57.086Z,0
2016-06-29T00:03:57.102Z,0
2016-06-29T00:04:56.748Z,0
2016-06-29T00:05:57.211Z,0
2016-06-29T00:06:56.766Z,0
2016-06-29T00:07:56.595Z,0
2016-06-29T00:08:56.708Z,0
2016-06-29T00:09:56.725Z,0
2016-06-29T00:10:56.831Z,0
2016-06-29T00:11:57.007Z,0
2016-06-29T00:12:56.950Z,0
2016-06-29T00:13:57.086Z,0
2016-06-29T00:14:56.649Z,0
2016-06-29T00:15:57.109Z,0
2016-06-29T00:16:56.677Z,0
2016-06-29T00:17:56.717Z,0
2016-06-29T00:18:57.377Z,0
2016-06-29T00:19:56.691Z,0
2016-06-29T00:20:56.634Z,0
2016-06-29T00:21:56.910Z,0
2016-06-29T00:22:56.966Z,0
2016-06-29T00:23:56.832Z,0
2016-06-29T00:24:56.912Z,0
2016-06-29T00:25:56.935Z,0
2016-06-29T00:38:58.127Z,0
2016-06-29T00:39:13.293Z,0
2016-06-29T00:40:13.235Z,0
2016-06-29T00:41:13.270Z,0
2016-06-29T00:42:13.203Z,0
2016-06-29T00:43:13.227Z,0
2016-06-29T00:44:13.209Z,0
2016-06-29T00:45:13.187Z,0
2016-06-29T00:46:13.195Z,0
2016-06-29T00:47:13.146Z,0
2016-06-29T00:48:13.225Z,0
2016-06-29T00:49:13.207Z,0
2016-06-29T00:50:13.193Z,0
2016-06-29T00:51:13.181Z,0
2016-06-29T00:52:13.172Z,0
2016-06-29T00:53:13.242Z,0
2016-06-29T00:54:13.175Z,0
2016-06-29T00:55:13.246Z,0
2016-06-29T00:56:13.187Z,0
2016-06-29T00:57:13.362Z,0
2016-06-29T00:58:13.540Z,0
2016-06-29T00:59:13.259Z,0
2016-06-29T01:00:13.191Z,0
2016-06-29T01:01:13.254Z,0
2016-06-29T01:02:13.204Z,0
2016-06-29T01:03:13.197Z,0
2016-06-29T01:04:13.195Z,0
2016-06-29T01:05:13.203Z,0
2016-06-29T01:06:13.238Z,0
2016-06-29T01:19:14.315Z,0
2016-06-29T01:19:29.404Z,0
2016-06-29T01:20:29.356Z,0
2016-06-29T01:21:29.375Z,0
2016-06-29T01:22:29.399Z,0
2016-06-29T01:23:29.356Z,0
2016-06-29T01:24:29.358Z,0
2016-06-29T01:25:29.384Z,0
2016-06-29T01:26:29.342Z,0
2016-06-29T01:27:29.368Z,0
2016-06-29T01:28:29.339Z,0
2016-06-29T01:29:29.355Z,0
2016-06-29T01:30:29.381Z,0
2016-06-29T01:31:29.349Z,0
2016-06-29T01:32:29.354Z,0
2016-06-29T01:33:29.512Z,0
2016-06-29T01:34:29.417Z,0
2016-06-29T01:35:29.745Z,0
2016-06-29T01:36:29.384Z,0
2016-06-29T01:37:29.450Z,0
2016-06-29T01:38:29.387Z,0
2016-06-29T01:39:29.566Z,0
2016-06-29T01:40:29.690Z,0
2016-06-29T01:41:29.550Z,0
2016-06-29T01:42:29.810Z,0
2016-06-29T01:43:29.428Z,0
2016-06-29T01:44:29.451Z,0
2016-06-29T01:45:29.412Z,0
2016-06-29T01:46:29.873Z,0
2016-06-29T01:47:29.564Z,0
2016-06-29T01:48:29.768Z,0
2016-06-29T01:49:29.733Z,0
2016-06-29T01:50:29.666Z,0
2016-06-29T01:51:30.006Z,0
2016-06-29T01:52:29.570Z,0
2016-06-29T01:53:30.016Z,0
2016-06-29T01:54:29.421Z,0
2016-06-29T01:55:29.347Z,0
2016-06-29T01:56:29.343Z,0
2016-06-29T01:57:29.911Z,0
2016-06-29T01:58:29.962Z,0
2016-06-29T01:59:29.770Z,0
2016-06-29T02:00:29.895Z,0
2016-06-29T02:01:29.801Z,0
2016-06-29T02:02:29.348Z,0
2016-06-29T02:03:29.373Z,0
2016-06-29T02:04:29.350Z,0
2016-06-29T02:05:29.366Z,0
2016-06-29T02:06:29.569Z,0
2016-06-29T02:07:29.403Z,0
2016-06-29T02:08:29.379Z,0
2016-06-29T02:09:29.348Z,0
2016-06-29T02:10:29.349Z,0
2016-06-29T02:11:29.360Z,0
2016-06-29T02:12:29.360Z,0
2016-06-29T02:13:29.375Z,0
2016-06-29T02:14:29.380Z,0
2016-06-29T02:15:29.455Z,0
2016-06-29T02:16:29.372Z,0
2016-06-29T02:17:29.612Z,0
2016-06-29T02:18:29.379Z,0
2016-06-29T02:19:29.409Z,0
2016-06-29T02:20:29.402Z,0
2016-06-29T02:21:29.421Z,0
2016-06-29T02:22:29.382Z,0
2016-06-29T02:23:29.377Z,0
2016-06-29T02:24:29.415Z,0
2016-06-29T02:25:29.378Z,0
2016-06-29T02:26:29.406Z,0
2016-06-29T02:27:29.460Z,0
2016-06-29T02:28:29.714Z,0
2016-06-29T02:29:29.462Z,0
2016-06-29T02:30:29.382Z,0
2016-06-29T02:31:29.475Z,0
2016-06-29T02:32:29.774Z,0
2016-06-29T02:33:29.560Z,0
2016-06-29T02:34:29.469Z,0
2016-06-29T02:35:29.398Z,0
2016-06-29T02:36:29.502Z,0
2016-06-29T02:37:29.382Z,0
2016-06-29T02:38:29.394Z,0
2016-06-29T02:39:29.397Z,0
2016-06-29T02:40:29.359Z,0
2016-06-29T02:41:29.353Z,0
2016-06-29T02:42:29.361Z,0
2016-06-29T02:43:29.374Z,0
2016-06-29T02:44:29.585Z,0
2016-06-29T02:45:29.620Z,4
2016-06-29T02:46:29.738Z,0
2016-06-29T02:47:29.442Z,4
2016-06-29T02:48:29.774Z,4
2016-06-29T02:49:29.925Z,4
2016-06-29T02:50:29.653Z,4
2016-06-29T02:51:29.475Z,4
2016-06-29T02:52:29.446Z,4
2016-06-29T02:53:29.375Z,12
2016-06-29T02:54:29.405Z,16
2016-06-29T02:55:29.383Z,16
2016-06-29T02:56:30.111Z,24
2016-06-29T02:57:29.418Z,24
2016-06-29T02:58:29.383Z,32
2016-06-29T02:59:29.377Z,40
2016-06-29T03:00:29.428Z,44
2016-06-29T03:01:29.384Z,48
2016-06-29T03:02:29.399Z,56
2016-06-29T03:03:29.408Z,64
2016-06-29T03:04:29.405Z,68
2016-06-29T03:05:29.400Z,76
2016-06-29T03:06:29.411Z,88
2016-06-29T03:07:29.402Z,96
2016-06-29T03:08:29.464Z,104
2016-06-29T03:09:29.404Z,108
2016-06-29T03:10:29.494Z,112
2016-06-29T03:11:29.426Z,116
2016-06-29T03:12:29.651Z,124
2016-06-29T03:13:29.559Z,136
2016-06-29T03:14:29.873Z,148
2016-06-29T03:15:29.582Z,144
2016-06-29T03:16:29.502Z,120
2016-06-29T03:17:30.038Z,112
2016-06-29T03:18:29.927Z,108
2016-06-29T03:19:29.854Z,108
2016-06-29T03:20:29.948Z,112
2016-06-29T03:21:29.443Z,120
2016-06-29T03:22:30.106Z,140
2016-06-29T03:23:30.110Z,140
2016-06-29T03:24:30.125Z,156
2016-06-29T03:25:32.812Z,168
2016-06-29T03:26:29.863Z,176
2016-06-29T03:27:29.734Z,188
2016-06-29T03:28:29.911Z,212
2016-06-29T03:41:30.354Z,244
2016-06-29T03:43:34.875Z,716
2016-06-29T03:51:34.736Z,1400
2016-06-29T03:51:51.037Z,1480
2016-06-29T03:55:58.911Z,1556
2016-06-29T03:56:15.620Z,1544
2016-06-29T03:59:02.393Z,1716
2016-06-29T04:06:16.618Z,1324
2016-06-29T04:06:34.238Z,1328
2016-06-29T04:08:00.734Z,1524
2016-06-29T04:08:51.457Z,1588
2016-06-29T04:09:33.459Z,1784
2016-06-29T04:10:33.835Z,2212
2016-06-29T04:11:33.712Z,2420
2016-06-29T04:12:33.192Z,2240
2016-06-29T04:13:33.374Z,2400
2016-06-29T04:14:34.359Z,2372
2016-06-29T04:15:43.593Z,2288
2016-06-29T04:16:33.822Z,2616
2016-06-29T04:17:33.529Z,2564
2016-06-29T04:18:36.774Z,2364
2016-06-29T04:19:33.515Z,2312
2016-06-29T04:20:52.537Z,2376
2016-06-29T04:22:02.255Z,2716
2016-06-29T04:22:50.956Z,2660
2016-06-29T04:23:33.413Z,2696
2016-06-29T04:24:40.086Z,2860
2016-06-29T04:25:33.867Z,2976
2016-06-29T04:26:35.499Z,3136
2016-06-29T04:27:53.544Z,3208
2016-06-29T04:28:33.120Z,3212
2016-06-29T04:29:44.594Z,3564
2016-06-29T04:30:33.201Z,3552
2016-06-29T04:31:33.225Z,3660
2016-06-29T04:32:33.499Z,3720
2016-06-29T04:33:34.826Z,3724
2016-06-29T04:34:33.760Z,4368
2016-06-29T04:35:33.578Z,6248
2016-06-29T04:37:39.850Z,8132
2016-06-29T04:37:55.372Z,8632
2016-06-29T04:38:55.616Z,8300
2016-06-29T04:39:55.741Z,8940
2016-06-29T04:40:56.639Z,8300
2016-06-29T04:41:55.519Z,8684
2016-06-29T04:42:55.623Z,9880
2016-06-29T04:43:58.462Z,8400
2016-06-29T04:44:55.982Z,10696
2016-06-29T04:46:16.562Z,11024
2016-06-29T04:47:12.823Z,10888
2016-06-29T04:47:56.125Z,11244
2016-06-29T04:57:12.763Z,13760
2016-06-29T04:58:12.465Z,13952
2016-06-29T04:59:12.424Z,15264
2016-06-29T05:00:12.580Z,14816
2016-06-29T05:01:12.654Z,14688
2016-06-29T05:02:12.846Z,5624
2016-06-29T05:03:12.646Z,6808
2016-06-29T05:04:12.660Z,16960
2016-06-29T05:05:12.542Z,8276
2016-06-29T05:06:15.716Z,12244
2016-06-29T05:07:12.362Z,9784
2016-06-29T05:08:12.360Z,4600
2016-06-29T05:09:12.459Z,3512
2016-06-29T05:10:12.760Z,3716
2016-06-29T05:11:12.512Z,5688
2016-06-29T05:12:12.716Z,8420
2016-06-29T05:13:12.548Z,6328
2016-06-29T05:14:12.527Z,6896
2016-06-29T05:15:12.618Z,9888
2016-06-29T05:16:12.358Z,5776
2016-06-29T05:17:12.495Z,5060
2016-06-29T05:18:12.393Z,3232
2016-06-29T05:19:12.373Z,2868
2016-06-29T05:20:12.440Z,3532
2016-06-29T05:21:12.560Z,7408
2016-06-29T05:22:12.332Z,7368
2016-06-29T05:23:12.422Z,11436
2016-06-29T05:24:12.957Z,9208
2016-06-29T05:25:12.682Z,12180
2016-06-29T05:26:12.514Z,18624
2016-06-29T05:27:13.645Z,9320
2016-06-29T05:28:12.465Z,10592
2016-06-29T05:29:12.424Z,6472
2016-06-29T05:30:12.648Z,6200
2016-06-29T05:31:12.336Z,6392
2016-06-29T05:44:13.187Z,21344
2016-06-29T05:44:28.761Z,7460
2016-06-29T05:45:28.413Z,24896
2016-06-29T05:46:28.369Z,33504
2016-06-29T05:47:28.469Z,18336
2016-06-29T05:48:28.467Z,8024
2016-06-29T05:49:28.540Z,6724
2016-06-29T05:50:28.419Z,11860
2016-06-29T05:51:28.343Z,34976
2016-06-29T05:52:28.379Z,7180
2016-06-29T05:53:28.417Z,5004
2016-06-29T05:54:28.406Z,8104
2016-06-29T05:55:28.429Z,20960
2016-06-29T05:56:28.367Z,16248
2016-06-29T05:57:28.391Z,19648
2016-06-29T05:58:28.410Z,5320
2016-06-29T05:59:28.428Z,8212
2016-06-29T06:00:28.590Z,5004
2016-06-29T06:01:28.402Z,4876
2016-06-29T06:02:28.355Z,4756
2016-06-29T06:03:29.131Z,4556
2016-06-29T06:04:28.417Z,4568
2016-06-29T06:05:28.383Z,5252
2016-06-29T06:06:28.507Z,4812
2016-06-29T06:07:29.062Z,4692
2016-06-29T06:08:28.440Z,4384
2016-06-29T06:09:28.666Z,4340
2016-06-29T06:10:28.414Z,4328
2016-06-29T06:11:28.968Z,4352
2016-06-29T06:12:28.365Z,4628
2016-06-29T06:13:28.405Z,4868
2016-06-29T06:14:28.497Z,4980
2016-06-29T06:15:28.453Z,5824
2016-06-29T06:16:28.440Z,7568
2016-06-29T06:17:28.480Z,9248
2016-06-29T06:18:28.401Z,8940
2016-06-29T06:19:28.663Z,9540
2016-06-29T06:20:28.429Z,10740
2016-06-29T06:21:29.299Z,9344
2016-06-29T06:22:28.414Z,6544
2016-06-29T06:23:28.456Z,8296
2016-06-29T06:24:28.537Z,10256
2016-06-29T06:25:28.863Z,11076
2016-06-29T06:26:31.214Z,12204
2016-06-29T06:27:44.649Z,12156
2016-06-29T06:28:32.973Z,12368
2016-06-29T06:29:33.488Z,11596
2016-06-29T06:30:30.338Z,9688
2016-06-29T06:31:31.364Z,8076
2016-06-29T06:32:35.588Z,7404
2016-06-29T06:33:33.880Z,7272
2016-06-29T06:34:28.603Z,6800
2016-06-29T06:35:28.781Z,6628
2016-06-29T06:36:31.673Z,6724
2016-06-29T06:37:28.424Z,6748
2016-06-29T06:38:30.403Z,7408
2016-06-29T06:39:28.619Z,7404
2016-06-29T06:40:28.573Z,7136
2016-06-29T06:41:28.407Z,6556
2016-06-29T06:42:31.727Z,6824
2016-06-29T06:43:28.605Z,7460
2016-06-29T06:44:28.388Z,8300
2016-06-29T06:45:28.399Z,10276
2016-06-29T06:46:28.468Z,11936
2016-06-29T06:47:28.391Z,11392
2016-06-29T06:48:28.415Z,11496
2016-06-29T06:49:29.671Z,12368
2016-06-29T06:50:29.313Z,12660
2016-06-29T06:51:28.776Z,12228
2016-06-29T06:52:28.506Z,11000
2016-06-29T06:53:28.400Z,9568
2016-06-29T06:54:28.572Z,10384
2016-06-29T07:07:29.050Z,4712
2016-06-29T07:07:44.165Z,4392
2016-06-29T07:08:44.098Z,3828
2016-06-29T07:09:44.226Z,3052
2016-06-29T07:10:44.148Z,3344
2016-06-29T07:11:44.118Z,2708
2016-06-29T07:12:49.604Z,4172
2016-06-29T07:13:44.721Z,4400
2016-06-29T07:14:44.247Z,4608
2016-06-29T07:15:44.089Z,5208
2016-06-29T07:16:48.514Z,6708
2016-06-29T07:17:44.631Z,7044
2016-06-29T07:18:45.814Z,7356
2016-06-29T07:19:46.124Z,6368
2016-06-29T07:20:44.325Z,5280
2016-06-29T07:21:44.162Z,4764
2016-06-29T07:22:44.193Z,4412
2016-06-29T07:23:44.119Z,5856
2016-06-29T07:24:44.140Z,6088
2016-06-29T07:25:44.794Z,4716
2016-06-29T07:26:45.604Z,4836
2016-06-29T07:27:44.123Z,5368
2016-06-29T07:28:44.102Z,5152
2016-06-29T07:29:44.166Z,5120
2016-06-29T07:30:45.622Z,6432
2016-06-29T07:31:44.182Z,7104
2016-06-29T07:32:45.871Z,7752
2016-06-29T07:33:44.402Z,10068
2016-06-29T07:34:44.239Z,5220
2016-06-29T07:47:50.772Z,5152
2016-06-29T07:48:12.638Z,5432
2016-06-29T07:49:11.433Z,6928
2016-06-29T07:50:11.321Z,5384
2016-06-29T07:51:13.412Z,5444
2016-06-29T07:52:13.447Z,5832
2016-06-29T07:53:11.504Z,5488
2016-06-29T07:54:13.599Z,4500
2016-06-29T07:55:11.082Z,4124
2016-06-29T07:56:11.320Z,4444
2016-06-29T08:08:28.356Z,4292
2016-06-29T08:09:27.973Z,5084
2016-06-29T08:10:28.145Z,5120
2016-06-29T08:11:27.914Z,6192
2016-06-29T08:12:27.928Z,6320
2016-06-29T08:13:27.951Z,6352
2016-06-29T08:14:29.070Z,5028
2016-06-29T08:15:28.114Z,4456
2016-06-29T08:16:28.134Z,4368
2016-06-29T08:17:27.991Z,4908
2016-06-29T08:18:28.136Z,5268
2016-06-29T08:19:30.206Z,4140
2016-06-29T08:20:28.031Z,3028
2016-06-29T08:21:27.940Z,2936
2016-06-29T08:23:37.242Z,3988
2016-06-29T08:24:37.215Z,4400
2016-06-29T08:25:37.180Z,4640
2016-06-29T08:26:37.231Z,5248
2016-06-29T08:27:37.169Z,4752
2016-06-29T08:28:37.142Z,4552
2016-06-29T08:29:37.196Z,4448
2016-06-29T08:30:37.586Z,5244
2016-06-29T08:31:37.125Z,6316
2016-06-29T08:32:37.376Z,7348
2016-06-29T08:33:37.158Z,10864
2016-06-29T08:34:37.820Z,13284
2016-06-29T08:35:37.493Z,14984
2016-06-29T08:36:37.181Z,16576
2016-06-29T08:37:37.498Z,16160
2016-06-29T08:38:37.182Z,18784
2016-06-29T08:39:37.269Z,19296
2016-06-29T08:40:37.171Z,17920
2016-06-29T08:41:49.123Z,17856
2016-06-29T08:42:37.192Z,17664
2016-06-29T08:43:37.244Z,13572
2016-06-29T08:44:37.186Z,12504
2016-06-29T08:45:37.852Z,13140
2016-06-29T08:46:37.245Z,16704
2016-06-29T08:47:37.222Z,13100
2016-06-29T08:48:37.164Z,16352
2016-06-29T08:49:38.920Z,18560
2016-06-29T08:50:38.493Z,13820
2016-06-29T08:51:38.012Z,12556
2016-06-29T08:52:37.238Z,9088
2016-06-29T08:53:37.367Z,10488
2016-06-29T08:54:50.390Z,13524
2016-06-29T08:55:38.619Z,12020
2016-06-29T08:56:38.495Z,8732
2016-06-29T08:57:41.243Z,7476
2016-06-29T08:58:55.198Z,8148
2016-06-29T08:59:40.008Z,10344
2016-06-29T09:00:37.253Z,20224
2016-06-29T09:01:37.279Z,26304
2016-06-29T09:02:48.069Z,38752
2016-06-29T09:03:47.021Z,74048
2016-06-29T09:04:54.561Z,30848
2016-06-29T09:06:03.462Z,63424
2016-06-29T09:06:40.238Z,68288
2016-06-29T09:07:38.607Z,78272
2016-06-29T09:09:37.370Z,21408
2016-06-29T09:10:42.546Z,32096
2016-06-29T09:12:03.887Z,19296
2016-06-29T09:12:38.490Z,18784
2016-06-29T09:13:37.616Z,24960
2016-06-29T09:14:38.387Z,16576
2016-06-29T09:15:37.405Z,15040
2016-06-29T09:16:39.724Z,13992
2016-06-29T09:17:55.929Z,13048
2016-06-29T09:18:37.191Z,12864
2016-06-29T09:19:38.204Z,13204
2016-06-29T09:20:38.602Z,10048
2016-06-29T09:21:42.966Z,8152
2016-06-29T09:22:52.421Z,6316
2016-06-29T09:23:43.634Z,5904
2016-06-29T09:24:40.710Z,6392
2016-06-29T09:25:39.918Z,8232
2016-06-29T09:26:38.282Z,10532
2016-06-29T09:27:37.238Z,7840
2016-06-29T09:28:37.270Z,5880
2016-06-29T09:29:37.215Z,4464
2016-06-29T09:30:37.231Z,5596
2016-06-29T09:31:37.221Z,8300
2016-06-29T09:32:37.227Z,10152
2016-06-29T09:33:37.168Z,12852
2016-06-29T09:34:37.314Z,17344
2016-06-29T09:35:37.415Z,17760
2016-06-29T09:36:37.363Z,19360
2016-06-29T09:37:38.169Z,25664
2016-06-29T09:38:37.206Z,32256
2016-06-29T09:39:37.251Z,22432
2016-06-29T09:40:38.397Z,14016
2016-06-29T09:41:39.106Z,13748
2016-06-29T09:42:37.219Z,18240
2016-06-29T09:43:37.183Z,13528
2016-06-29T09:44:37.196Z,12572
2016-06-29T09:45:37.391Z,9788
2016-06-29T09:46:37.209Z,7584
2016-06-29T09:47:37.203Z,9000
2016-06-29T09:48:37.466Z,10908
2016-06-29T09:49:37.219Z,9844
2016-06-29T09:50:37.231Z,8784
2016-06-29T09:51:37.348Z,8452
2016-06-29T09:52:37.434Z,8408
2016-06-29T09:53:38.196Z,9044
2016-06-29T09:54:37.252Z,10876
2016-06-29T09:55:37.214Z,11576
2016-06-29T09:56:37.249Z,11808
2016-06-29T09:57:37.189Z,11700
2016-06-29T09:58:37.204Z,11216
2016-06-29T09:59:38.017Z,10024
2016-06-29T10:00:37.808Z,8084
2016-06-29T10:01:40.538Z,7792
2016-06-29T10:03:01.214Z,7240
2016-06-29T10:03:39.791Z,7188
2016-06-29T10:04:39.773Z,6104
2016-06-29T10:05:37.487Z,6768
2016-06-29T10:06:37.569Z,5916
2016-06-29T10:07:38.496Z,7824
2016-06-29T10:08:37.227Z,8596
2016-06-29T10:09:41.061Z,8200
2016-06-29T10:10:37.489Z,7248
2016-06-29T10:11:37.565Z,9212
2016-06-29T10:12:38.842Z,12396
2016-06-29T10:13:40.564Z,17024
2016-06-29T10:14:37.295Z,21568
2016-06-29T10:15:37.851Z,16064
2016-06-29T10:16:37.810Z,16832
2016-06-29T10:17:38.339Z,23648
2016-06-29T10:18:37.550Z,52192
2016-06-29T10:19:38.011Z,38624
2016-06-29T10:20:37.257Z,28384
2016-06-29T10:21:37.912Z,22176
2016-06-29T10:22:37.636Z,23712
2016-06-29T10:23:37.194Z,31872
2016-06-29T10:24:37.342Z,25952
2016-06-29T10:25:37.352Z,29824
2016-06-29T10:26:37.454Z,32256
2016-06-29T10:27:38.311Z,37088
2016-06-29T10:28:40.448Z,42912
2016-06-29T10:29:37.195Z,27232
2016-06-29T10:30:37.242Z,26784
2016-06-29T10:31:37.825Z,25408
2016-06-29T10:32:37.235Z,27360
2016-06-29T10:33:39.246Z,39488
2016-06-29T10:34:37.521Z,40992
2016-06-29T10:35:39.599Z,29920
2016-06-29T10:36:38.604Z,57280
2016-06-29T10:37:37.295Z,20256
2016-06-29T10:40:26.362Z,48832
2016-06-29T10:40:41.675Z,23520
2016-06-29T10:41:53.559Z,17152
2016-06-29T10:42:41.773Z,14620
2016-06-29T10:43:45.596Z,30816
2016-06-29T10:44:41.997Z,41088
2016-06-29T10:45:41.730Z,33632
2016-06-29T10:46:41.984Z,48672
2016-06-29T10:47:41.837Z,17824
2016-06-29T10:48:41.748Z,18176
2016-06-29T10:49:41.745Z,19872
2016-06-29T10:50:41.683Z,13884
2016-06-29T10:51:43.535Z,9124
2016-06-29T10:52:41.708Z,10012
2016-06-29T10:53:41.718Z,14280
2016-06-29T10:54:41.798Z,14124
2016-06-29T10:55:45.498Z,15596
2016-06-29T10:56:46.979Z,16736
2016-06-29T10:57:41.746Z,18560
2016-06-29T10:58:41.797Z,18144
2016-06-29T10:59:41.795Z,15484
2016-06-29T11:00:42.086Z,18240
2016-06-29T11:01:41.824Z,26016
2016-06-29T11:02:41.687Z,50144
2016-06-29T11:03:45.693Z,28096
2016-06-29T11:04:41.715Z,40320
2016-06-29T11:05:43.838Z,33088
2016-06-29T11:06:41.696Z,22080
2016-06-29T11:07:41.850Z,19264
2016-06-29T11:08:42.644Z,14264
2016-06-29T11:09:41.795Z,14996
2016-06-29T11:10:41.825Z,28672
2016-06-29T11:11:43.419Z,16288
2016-06-29T11:12:41.655Z,14976
2016-06-29T11:13:41.906Z,14472
2016-06-29T11:14:41.886Z,10496
2016-06-29T11:15:42.122Z,8652
2016-06-29T11:16:41.700Z,9128
2016-06-29T11:17:42.031Z,12400
2016-06-29T11:18:41.857Z,17728
2016-06-29T11:19:41.976Z,20256
2016-06-29T11:20:41.705Z,38752
2016-06-29T11:21:42.182Z,26976
2016-06-29T11:22:42.045Z,61888
2016-06-29T11:23:41.757Z,30240
2016-06-29T11:24:41.793Z,15652
2016-06-29T11:25:41.756Z,11904
2016-06-29T11:26:42.198Z,11452
2016-06-29T11:27:41.966Z,23072
2016-06-29T11:28:44.523Z,58656
2016-06-29T11:29:43.256Z,15304
2016-06-29T11:30:42.011Z,12656
2016-06-29T11:31:41.978Z,11396
2016-06-29T11:32:42.115Z,11528
2016-06-29T11:33:42.132Z,12172
2016-06-29T11:34:43.993Z,12160
2016-06-29T11:35:42.030Z,11316
2016-06-29T11:36:42.411Z,13308
2016-06-29T11:37:41.930Z,36640
2016-06-29T11:49:57.716Z,14424
2016-06-29T11:50:57.683Z,14092
2016-06-29T11:51:57.710Z,13148
2016-06-29T11:52:57.689Z,12916
2016-06-29T11:53:57.773Z,16032
2016-06-29T11:54:57.826Z,16960
2016-06-29T11:55:57.667Z,12860
2016-06-29T11:56:57.681Z,23072
2016-06-29T11:57:57.822Z,24320
2016-06-29T11:58:58.869Z,26624
2016-06-29T11:59:57.711Z,22560
2016-06-29T12:00:57.969Z,24576
2016-06-29T12:01:58.491Z,18688
2016-06-29T12:02:58.789Z,15324
2016-06-29T12:03:57.962Z,15808
2016-06-29T12:04:57.695Z,13188
2016-06-29T12:05:57.734Z,12908
2016-06-29T12:06:57.781Z,13208
2016-06-29T12:07:57.761Z,12800
2016-06-29T12:08:57.688Z,12432
2016-06-29T12:09:57.652Z,14848
2016-06-29T12:10:57.745Z,16320
2016-06-29T12:11:57.750Z,17760
2016-06-29T12:12:57.698Z,17568
2016-06-29T12:13:58.455Z,18112
2016-06-29T12:14:57.722Z,18176
2016-06-29T12:15:57.643Z,18176
2016-06-29T12:16:57.691Z,18112
2016-06-29T12:17:57.760Z,20000
2016-06-29T12:18:57.697Z,27680
2016-06-29T12:19:57.680Z,42304
2016-06-29T12:20:57.712Z,54560
2016-06-29T12:21:57.713Z,71904
2016-06-29T12:22:58.591Z,83168
2016-06-29T12:23:57.661Z,37280
2016-06-29T12:24:57.691Z,32192
2016-06-29T12:25:57.727Z,35136
2016-06-29T12:26:57.661Z,88288
2016-06-29T12:27:57.849Z,32320
2016-06-29T12:28:57.824Z,22560
2016-06-29T12:29:58.127Z,93984
2016-06-29T12:30:57.672Z,14760
2016-06-29T12:31:57.995Z,18848
2016-06-29T12:32:58.082Z,94720
2016-06-29T12:33:57.835Z,91232
2016-06-29T12:34:57.993Z,92448
2016-06-29T12:35:57.710Z,46208
2016-06-29T12:36:59.393Z,15056
2016-06-29T12:38:00.170Z,91296
2016-06-29T12:38:57.936Z,93792
2016-06-29T12:39:57.768Z,93248
2016-06-29T12:40:58.088Z,90752
2016-06-29T12:50:59.025Z,90624
2016-06-29T12:51:14.351Z,94592
2016-06-29T12:52:14.819Z,54784
2016-06-29T12:53:14.131Z,105024
2016-06-29T12:54:14.212Z,98048
2016-06-29T12:55:14.114Z,20704
2016-06-29T12:56:14.451Z,15588
2016-06-29T12:57:14.144Z,91392
2016-06-29T13:10:15.143Z,22784
2016-06-29T13:10:35.769Z,83680
2016-06-29T13:11:30.904Z,83104
2016-06-29T13:12:30.644Z,12540
2016-06-29T13:13:30.565Z,14700
2016-06-29T13:14:30.508Z,26400
2016-06-29T13:15:30.705Z,78624
2016-06-29T13:16:30.473Z,31104
2016-06-29T13:17:31.695Z,11072
2016-06-29T13:18:31.283Z,8748
2016-06-29T13:19:32.624Z,12148
2016-06-29T13:20:30.746Z,10180
2016-06-29T13:21:30.535Z,6796
2016-06-29T13:22:31.806Z,7360
2016-06-29T13:23:31.109Z,9324
2016-06-29T13:24:30.766Z,51648
2016-06-29T13:25:30.882Z,62432
2016-06-29T13:26:30.482Z,54272
2016-06-29T13:27:32.786Z,48480
2016-06-29T13:28:30.744Z,49632
2016-06-29T13:29:30.859Z,38752
2016-06-29T13:30:30.749Z,24928
2016-06-29T13:42:47.129Z,10160
2016-06-29T13:43:47.114Z,11684
2016-06-29T13:44:47.173Z,13148
2016-06-29T13:45:47.073Z,11012
2016-06-29T13:46:47.085Z,10376
2016-06-29T13:47:47.143Z,9788
2016-06-29T13:48:48.075Z,9752
2016-06-29T13:49:57.800Z,9732
2016-06-29T13:50:47.068Z,8360
2016-06-29T13:51:47.373Z,9984
2016-06-29T13:52:47.496Z,8676
2016-06-29T13:53:47.158Z,9284
2016-06-29T13:54:47.061Z,8488
2016-06-29T13:55:48.035Z,10644
2016-06-29T13:56:47.080Z,10820
2016-06-29T13:57:47.096Z,9268
2016-06-29T13:58:47.257Z,8712
2016-06-29T13:59:47.308Z,8224
2016-06-29T14:00:47.010Z,8064
2016-06-29T14:01:47.443Z,8068
2016-06-29T14:02:48.848Z,8416
2016-06-29T14:03:47.124Z,8696
2016-06-29T14:04:47.740Z,9028
2016-06-29T14:05:48.447Z,7236
2016-06-29T14:06:47.074Z,6280
2016-06-29T14:07:47.771Z,6372
2016-06-29T14:08:47.094Z,8040
2016-06-29T14:09:47.237Z,9264
2016-06-29T14:10:47.159Z,9916
2016-06-29T14:11:47.396Z,8416
2016-06-29T14:12:47.080Z,8260
2016-06-29T14:13:47.400Z,9224
2016-06-29T14:14:47.375Z,9672
2016-06-29T14:15:47.709Z,9240
2016-06-29T14:16:47.230Z,8316
2016-06-29T14:17:47.782Z,7140
2016-06-29T14:18:47.114Z,6044
2016-06-29T14:19:47.758Z,5488
2016-06-29T14:20:47.217Z,5240
2016-06-29T14:21:47.127Z,4904
2016-06-29T14:22:47.342Z,4788
2016-06-29T14:32:05.002Z,9968
2016-06-29T14:33:05.414Z,8936
2016-06-29T14:34:04.892Z,8328
2016-06-29T14:35:04.951Z,8048
2016-06-29T14:36:06.814Z,8736
2016-06-29T14:37:05.200Z,10204
2016-06-29T14:38:05.255Z,11476
2016-06-29T14:39:09.001Z,10660
2016-06-29T14:40:04.952Z,9576
2016-06-29T14:41:04.987Z,8540
2016-06-29T14:42:05.313Z,7728
2016-06-29T14:43:04.936Z,7216
2016-06-29T14:44:04.904Z,6736
2016-06-29T14:45:05.278Z,5980
2016-06-29T14:46:06.487Z,6092
2016-06-29T14:47:04.968Z,5488
2016-06-29T14:48:05.529Z,4784
2016-06-29T14:49:05.094Z,5088
2016-06-29T14:50:04.931Z,5256
2016-06-29T14:51:05.024Z,4944
2016-06-29T14:52:05.141Z,4768
2016-06-29T14:53:08.673Z,5260
2016-06-29T14:54:05.620Z,5872
2016-06-29T14:55:04.949Z,6420
2016-06-29T14:56:05.383Z,7080
2016-06-29T14:57:05.595Z,6624
2016-06-29T14:58:04.919Z,6012
2016-06-29T14:59:05.420Z,6132
2016-06-29T15:00:05.673Z,6540
2016-06-29T15:01:04.963Z,6228
2016-06-29T15:02:04.891Z,6348
2016-06-29T15:03:05.259Z,6016
2016-06-29T15:04:04.926Z,5292
2016-06-29T15:05:05.250Z,5024
2016-06-29T15:06:05.134Z,4292
2016-06-29T15:07:04.875Z,4900
2016-06-29T15:08:16.808Z,4444
2016-06-29T15:09:04.965Z,4496
2016-06-29T15:10:04.946Z,4340
2016-06-29T15:11:05.102Z,4456
2016-06-29T15:12:04.969Z,4852
2016-06-29T15:13:05.150Z,4420
2016-06-29T15:14:04.960Z,4352
2016-06-29T15:15:05.032Z,4284
2016-06-29T15:16:05.175Z,4360
2016-06-29T15:17:05.161Z,3984
2016-06-29T15:18:04.988Z,3652
2016-06-29T15:19:05.273Z,3680
2016-06-29T15:20:05.392Z,3616
2016-06-29T15:21:04.965Z,3644
2016-06-29T15:22:05.098Z,3572
2016-06-29T15:23:05.550Z,4216
2016-06-29T15:24:04.937Z,5408
2016-06-29T15:25:05.214Z,5896
2016-06-29T15:26:05.325Z,5572
2016-06-29T15:27:07.473Z,5696
2016-06-29T15:28:06.407Z,5648
2016-06-29T15:29:04.895Z,5592
2016-06-29T15:30:04.919Z,5552
2016-06-29T15:31:05.330Z,5804
2016-06-29T15:32:04.996Z,5748
2016-06-29T15:33:05.042Z,5760
2016-06-29T15:34:04.951Z,5600
2016-06-29T15:35:04.949Z,5372
2016-06-29T15:36:09.236Z,5232
2016-06-29T15:37:04.911Z,5188
2016-06-29T15:38:05.673Z,4908
2016-06-29T15:39:05.237Z,4596
2016-06-29T15:40:05.191Z,4428
2016-06-29T15:41:06.262Z,4432
2016-06-29T15:42:04.933Z,4552
2016-06-29T15:43:05.557Z,4532
2016-06-29T15:44:05.128Z,4592
2016-06-29T15:45:05.202Z,4536
2016-06-29T15:46:06.289Z,4564
2016-06-29T15:47:04.934Z,4692
2016-06-29T15:48:04.932Z,5080
2016-06-29T15:49:05.003Z,5200
2016-06-29T15:50:04.938Z,5084
2016-06-29T15:51:05.035Z,5060
2016-06-29T15:52:04.962Z,5340
2016-06-29T15:53:05.056Z,5724
2016-06-29T15:54:05.495Z,5784
2016-06-29T15:55:07.105Z,5664
2016-06-29T15:56:04.941Z,5540
2016-06-29T15:57:15.707Z,5088
2016-06-29T15:58:05.077Z,4652
2016-06-29T15:59:04.991Z,4344
2016-06-29T16:00:05.037Z,4048
2016-06-29T16:01:04.955Z,4028
2016-06-29T16:02:05.999Z,3972
2016-06-29T16:03:05.011Z,3908
2016-06-29T16:04:05.207Z,3920
2016-06-29T16:05:04.909Z,3928
2016-06-29T16:06:05.335Z,3920